Henry Post Army Air Field (Fort Sill) Fort Sill US
ICAO: KFSI
IATA: FSI
Category: Medium
Scheduled Services: No

Elevation: 1189 ft
TransAlt. 18000 ft.

Airport Communications:
FORT SILL APP/DEP:118.6
ATIS:135.425
CLNC DEL:121.7
POST GND:121.7
DUNCAN SCTR:118.6
PMSV METRO:37.52
PTD:123.05
POST TWR:124.95

KFSI Zoom In..

If you have problems with the map follow the link
https://www.worldairports.se/pages/airport.php?
ICAO=KFSI

Runways:

(A) RW 17 length 5001 ft width 150 ft
---- / hdg 173

(B) RW 35 length 5001 ft width 150 ft
---- / hdg 353

Location; KFSI
Day. 16 / Time. 10.56 Zulu
* Altimeter: 30.06
* Temperature: 04° c. 39.2°f.
* Wind from: 010° Speed 03 kn.
Dewpoint: 02° c.
Visibility: 10 Statute Miles.
Clouds: Clear (automated report).

KFSI 161056Z AUTO 01003KT 10SM CLR 04/02 A3006 RMK AO2 SLP178 T00360021


Wind From 010°
Speed 03 kn.

 
 
jpsmedia.com for Web Design worldairports.se 2018   terms of use